Hawthorn, Pennsylvania
Current Conditions -  °F | °C
As of 3:24 AM on Monday 26 Jan 2015 (Local Time) from KDUJ Reporting Station
Light Snow Light Snow  
Wind Chill:   Ceiling: 2600
Heat Index: 20°   Visibility: 1.2mi
Dew Point: 17°   Wind: 13mph
Humidity: 89%   Direction: 80°E
Pressure: 29.75"   Gusts: NA
Location:  41.02°N, 79.27°W
Report Text: KDUJ 260824Z AUTO 08011KT 1 1/4SM -SN BR FEW009 OVC026 M07/M08 A2975 RMK AO2 P0000 T10671083
Loading
Personal Weather Stations






























Interactive Weather Map New forecast layout! Learn more

10-Day Weather Forecast

Advertisements
Track Severe Weather on mobile